Time;durP1;ratioP1;P1;durP2;ratioP2;P2;SDS_P1;SDS_P2;PMS_P1;PMS_P2;Temp;Humidity;BMP_temperature;BMP_pressure;BME280_temperature;BME280_humidity;BME280_pressure;Samples;Min_cycle;Max_cycle;Signal;HPM_P1;HPM_P2
2022/05/28 00:01:34;;;;;;;;;;;11.70;99.90;;;;;;5096882;28;19923;-70
2022/05/28 00:04:04;;;;;;;;;;;11.70;99.90;;;;;;5096422;28;19912;-69
2022/05/28 00:06:30;;;;;;;;;;;11.60;99.90;;;;;;5084354;28;19912;-70
2022/05/28 00:08:59;;;;;;;;;;;11.50;99.90;;;;;;5093006;28;19916;-69
2022/05/28 00:11:28;;;;;;;;;;;11.40;99.90;;;;;;5098541;28;19920;-69
2022/05/28 00:13:54;;;;;;;;;;;11.30;99.90;;;;;;5096665;28;19912;-68
2022/05/28 00:16:20;;;;;;;;;;;11.30;99.90;;;;;;5097954;28;19965;-69
2022/05/28 00:18:46;;;;;;;;;;;11.30;99.90;;;;;;5093939;28;19967;-68
2022/05/28 00:21:12;;;;;;;;;;;11.40;99.90;;;;;;5093103;28;20376;-69
2022/05/28 00:23:38;;;;;;;;;;;11.40;99.90;;;;;;5094997;28;19912;-69
2022/05/28 00:26:05;;;;;;;;;;;11.30;99.90;;;;;;5093659;28;19916;-69
2022/05/28 00:28:31;;;;;;;;;;;11.20;99.90;;;;;;5095651;28;19927;-69
2022/05/28 00:30:56;;;;;;;;;;;11.10;99.90;;;;;;5096872;28;19916;-69
2022/05/28 00:33:22;;;;;;;;;;;11.10;99.90;;;;;;5090195;28;19916;-69
2022/05/28 00:35:48;;;;;;;;;;;11.10;99.90;;;;;;5096533;28;19959;-69
2022/05/28 00:38:15;;;;;;;;;;;11.10;99.90;;;;;;5094185;28;20345;-69
2022/05/28 00:40:44;;;;;;;;;;;11.10;99.90;;;;;;5096824;28;20358;-69
2022/05/28 00:43:10;;;;;;;;;;;11.10;99.90;;;;;;5098638;28;20010;-70
2022/05/28 00:45:35;;;;;;;;;;;11.00;99.90;;;;;;5094475;28;20322;-69
2022/05/28 00:48:03;;;;;;;;;;;10.90;99.90;;;;;;5091349;28;19916;-69
2022/05/28 00:50:29;;;;;;;;;;;10.80;99.90;;;;;;5092193;28;19913;-70
2022/05/28 00:52:55;;;;;;;;;;;10.80;99.90;;;;;;5094805;28;19912;-69
2022/05/28 00:55:21;;;;;;;;;;;10.80;99.90;;;;;;5097505;28;19976;-70
2022/05/28 00:57:46;;;;;;;;;;;10.70;99.90;;;;;;5097409;28;19938;-68
2022/05/28 01:00:13;;;;;;;;;;;10.70;99.90;;;;;;5097972;28;19923;-69
2022/05/28 01:02:57;;;;;;;;;;;10.70;99.90;;;;;;5101711;28;20326;-69
2022/05/28 01:05:27;;;;;;;;;;;10.60;99.90;;;;;;5096742;28;19933;-70
2022/05/28 01:07:53;;;;;;;;;;;10.50;99.90;;;;;;5090351;28;19912;-69
2022/05/28 01:10:30;;;;;;;;;;;10.40;99.90;;;;;;5099014;28;20004;-69
2022/05/28 01:13:07;;;;;;;;;;;10.40;99.90;;;;;;5098553;28;19970;-69
2022/05/28 01:15:35;;;;;;;;;;;10.40;99.90;;;;;;5097722;28;19935;-69
2022/05/28 01:18:07;;;;;;;;;;;10.30;99.90;;;;;;5094771;28;19916;-68
2022/05/28 01:20:40;;;;;;;;;;;10.30;99.90;;;;;;5096487;28;19931;-69
2022/05/28 01:23:29;;;;;;;;;;;10.30;99.90;;;;;;5094949;28;19919;-69
2022/05/28 01:26:15;;;;;;;;;;;10.40;99.90;;;;;;5089827;28;19987;-69
2022/05/28 01:28:44;;;;;;;;;;;10.30;99.90;;;;;;5064498;28;19958;-69
2022/05/28 01:31:11;;;;;;;;;;;10.20;99.90;;;;;;5098646;28;19919;-68
2022/05/28 01:33:38;;;;;;;;;;;10.10;99.90;;;;;;5080792;28;19920;-69
2022/05/28 01:36:05;;;;;;;;;;;10.10;99.90;;;;;;5100143;28;19922;-69
2022/05/28 01:38:32;;;;;;;;;;;10.00;99.90;;;;;;5097188;28;19931;-69
2022/05/28 01:40:57;;;;;;;;;;;10.00;99.90;;;;;;5099791;28;19916;-68
2022/05/28 01:43:23;;;;;;;;;;;9.90;99.90;;;;;;5086403;28;20405;-69
2022/05/28 01:45:49;;;;;;;;;;;9.80;99.90;;;;;;5096309;28;19912;-69
2022/05/28 01:48:16;;;;;;;;;;;9.80;99.90;;;;;;5086061;28;19917;-69
2022/05/28 01:50:43;;;;;;;;;;;9.80;99.90;;;;;;5088378;28;20316;-69
2022/05/28 01:53:10;;;;;;;;;;;9.70;99.90;;;;;;5086328;28;19959;-69
2022/05/28 01:55:39;;;;;;;;;;;9.70;99.90;;;;;;5096944;28;19923;-70
2022/05/28 01:58:05;;;;;;;;;;;9.70;99.90;;;;;;5101256;28;19920;-69
2022/05/28 02:00:30;;;;;;;;;;;9.60;99.90;;;;;;5101109;28;19919;-68
2022/05/28 02:02:58;;;;;;;;;;;9.60;99.90;;;;;;5096394;28;19924;-68
2022/05/28 02:05:24;;;;;;;;;;;9.60;99.90;;;;;;5104367;28;19943;-69
2022/05/28 02:07:49;;;;;;;;;;;9.50;99.90;;;;;;5100632;28;19912;-69
2022/05/28 02:10:16;;;;;;;;;;;9.50;99.90;;;;;;5103780;28;19920;-69
2022/05/28 02:12:53;;;;;;;;;;;9.50;99.90;;;;;;5101533;28;19912;-69
2022/05/28 02:15:34;;;;;;;;;;;9.40;99.90;;;;;;5103842;28;20387;-69
2022/05/28 02:18:18;;;;;;;;;;;9.30;99.90;;;;;;5093434;28;19968;-69
2022/05/28 02:20:58;;;;;;;;;;;9.30;99.90;;;;;;5102213;28;20019;-69
2022/05/28 02:23:29;;;;;;;;;;;9.30;99.90;;;;;;5101023;28;19912;-70
2022/05/28 02:25:58;;;;;;;;;;;9.30;99.90;;;;;;5102875;28;19920;-69
2022/05/28 02:28:25;;;;;;;;;;;9.30;99.90;;;;;;5102042;28;19912;-69
2022/05/28 02:30:52;;;;;;;;;;;9.30;99.90;;;;;;5101615;28;19927;-69
2022/05/28 02:33:18;;;;;;;;;;;9.20;99.90;;;;;;5099699;28;20332;-70
2022/05/28 02:35:44;;;;;;;;;;;9.20;99.90;;;;;;5097736;28;19954;-69
2022/05/28 02:38:11;;;;;;;;;;;9.20;99.90;;;;;;5082991;28;19954;-70
2022/05/28 02:40:36;;;;;;;;;;;9.20;99.90;;;;;;5104670;28;19916;-70
2022/05/28 02:43:02;;;;;;;;;;;9.20;99.90;;;;;;5087851;28;19920;-70
2022/05/28 02:45:27;;;;;;;;;;;9.20;99.90;;;;;;5096346;28;19912;-69
2022/05/28 02:47:53;;;;;;;;;;;9.10;99.90;;;;;;5100680;28;19934;-70
2022/05/28 02:50:19;;;;;;;;;;;9.10;99.90;;;;;;5097199;28;19912;-70
2022/05/28 02:52:45;;;;;;;;;;;8.90;99.90;;;;;;5100867;28;19919;-70
2022/05/28 02:55:10;;;;;;;;;;;9.00;99.90;;;;;;5101297;28;19912;-70
2022/05/28 02:57:36;;;;;;;;;;;9.00;99.90;;;;;;5104457;28;20642;-70
2022/05/28 03:00:03;;;;;;;;;;;9.10;99.90;;;;;;5102100;28;19916;-69
2022/05/28 03:02:28;;;;;;;;;;;9.20;99.90;;;;;;5104496;28;19919;-69
2022/05/28 03:04:54;;;;;;;;;;;9.10;99.90;;;;;;5102785;28;19948;-68
2022/05/28 03:07:20;;;;;;;;;;;9.00;99.90;;;;;;5072882;28;19989;-69
2022/05/28 03:09:46;;;;;;;;;;;8.90;99.90;;;;;;5101634;28;19947;-69
2022/05/28 03:12:11;;;;;;;;;;;8.90;99.90;;;;;;5097075;28;19919;-69
2022/05/28 03:14:37;;;;;;;;;;;8.80;99.90;;;;;;5101614;28;19912;-69
2022/05/28 03:17:03;;;;;;;;;;;8.70;99.90;;;;;;5085636;28;19938;-68
2022/05/28 03:19:28;;;;;;;;;;;8.70;99.90;;;;;;5091185;28;20373;-69
2022/05/28 03:21:54;;;;;;;;;;;8.80;99.90;;;;;;5096942;28;19919;-69
2022/05/28 03:24:19;;;;;;;;;;;8.90;99.90;;;;;;5098342;28;19916;-68
2022/05/28 03:26:45;;;;;;;;;;;8.70;99.90;;;;;;5096150;28;19912;-70
2022/05/28 03:29:10;;;;;;;;;;;8.70;99.90;;;;;;5077356;28;19912;-69
2022/05/28 03:31:36;;;;;;;;;;;8.60;99.90;;;;;;5093781;28;19976;-69
2022/05/28 03:34:02;;;;;;;;;;;8.60;99.90;;;;;;5089557;28;20315;-69
2022/05/28 03:36:28;;;;;;;;;;;8.70;99.90;;;;;;5092325;28;20006;-68
2022/05/28 03:38:53;;;;;;;;;;;8.70;99.90;;;;;;5093823;28;19916;-69
2022/05/28 03:41:19;;;;;;;;;;;8.70;99.90;;;;;;5101206;28;19951;-68
2022/05/28 03:43:44;;;;;;;;;;;8.60;99.90;;;;;;5093354;28;20445;-68
2022/05/28 03:46:29;;;;;;;;;;;8.50;99.90;;;;;;5095911;28;20358;-69
2022/05/28 03:49:15;;;;;;;;;;;8.50;99.90;;;;;;5088781;28;19927;-68
2022/05/28 03:51:40;;;;;;;;;;;8.40;99.90;;;;;;5082887;28;19969;-69
2022/05/28 03:54:06;;;;;;;;;;;8.50;99.90;;;;;;5092241;28;19920;-69
2022/05/28 03:56:37;;;;;;;;;;;8.40;99.90;;;;;;5081760;28;19920;-68
2022/05/28 03:59:03;;;;;;;;;;;8.50;99.90;;;;;;5092286;28;19924;-68
2022/05/28 04:01:29;;;;;;;;;;;8.50;99.90;;;;;;5092274;28;20179;-70
2022/05/28 04:03:54;;;;;;;;;;;8.60;99.90;;;;;;5092293;28;20396;-69
2022/05/28 04:06:20;;;;;;;;;;;8.60;99.90;;;;;;5095148;28;19923;-69
2022/05/28 04:08:45;;;;;;;;;;;8.40;99.90;;;;;;5094843;28;20002;-70
2022/05/28 04:11:11;;;;;;;;;;;8.40;99.90;;;;;;5096512;28;19909;-69
2022/05/28 04:13:36;;;;;;;;;;;8.40;99.90;;;;;;5084594;28;21305;-68
2022/05/28 04:16:02;;;;;;;;;;;8.40;99.90;;;;;;5088376;28;19919;-69
2022/05/28 04:18:27;;;;;;;;;;;8.40;99.90;;;;;;5091029;28;19926;-68
2022/05/28 04:20:53;;;;;;;;;;;8.50;99.90;;;;;;5094213;28;19912;-69
2022/05/28 04:23:18;;;;;;;;;;;8.60;99.90;;;;;;5095937;28;19965;-68
2022/05/28 04:25:44;;;;;;;;;;;8.60;99.90;;;;;;5087436;28;19972;-69
2022/05/28 04:28:10;;;;;;;;;;;8.70;99.90;;;;;;5091618;28;19912;-70
2022/05/28 04:30:36;;;;;;;;;;;8.70;99.90;;;;;;5085351;28;19919;-70
2022/05/28 04:33:01;;;;;;;;;;;8.60;99.90;;;;;;5090210;28;19912;-70
2022/05/28 04:35:27;;;;;;;;;;;8.70;99.90;;;;;;5095870;28;20384;-70
2022/05/28 04:37:52;;;;;;;;;;;8.60;99.90;;;;;;5087981;28;20393;-70
2022/05/28 04:40:18;;;;;;;;;;;8.80;99.90;;;;;;5095342;28;19951;-70
2022/05/28 04:42:44;;;;;;;;;;;8.70;99.90;;;;;;5096065;28;19915;-70
2022/05/28 04:45:10;;;;;;;;;;;8.90;99.90;;;;;;5092623;28;19919;-70
2022/05/28 04:47:35;;;;;;;;;;;9.00;99.90;;;;;;5090067;28;19912;-70
2022/05/28 04:50:01;;;;;;;;;;;8.90;99.90;;;;;;5092750;28;19912;-70
2022/05/28 04:52:26;;;;;;;;;;;8.90;99.90;;;;;;5095922;28;19912;-68
2022/05/28 04:54:52;;;;;;;;;;;8.90;99.90;;;;;;5094975;28;19915;-69
2022/05/28 04:57:18;;;;;;;;;;;9.10;99.90;;;;;;5092017;28;19965;-69
2022/05/28 04:59:43;;;;;;;;;;;9.30;99.90;;;;;;5093368;28;19916;-69
2022/05/28 05:02:09;;;;;;;;;;;9.60;99.90;;;;;;5082147;28;20437;-69
2022/05/28 05:04:35;;;;;;;;;;;9.80;99.90;;;;;;5077880;28;19912;-70
2022/05/28 05:07:00;;;;;;;;;;;9.80;99.90;;;;;;5092441;28;20393;-69
2022/05/28 05:09:26;;;;;;;;;;;9.90;99.90;;;;;;5095350;28;19919;-69
2022/05/28 05:11:51;;;;;;;;;;;10.00;99.90;;;;;;5099105;28;19923;-69
2022/05/28 05:14:17;;;;;;;;;;;10.00;99.90;;;;;;5096253;28;19959;-70
2022/05/28 05:16:43;;;;;;;;;;;10.10;99.90;;;;;;5093570;28;19920;-69
2022/05/28 05:19:09;;;;;;;;;;;10.20;99.90;;;;;;5078594;28;20396;-70
2022/05/28 05:21:34;;;;;;;;;;;10.20;99.90;;;;;;5098851;28;20335;-69
2022/05/28 05:24:00;;;;;;;;;;;10.30;99.90;;;;;;5093276;28;19919;-71
2022/05/28 05:26:25;;;;;;;;;;;10.30;99.90;;;;;;5095377;28;19918;-69
2022/05/28 05:28:51;;;;;;;;;;;10.30;99.90;;;;;;5080071;28;19920;-69
2022/05/28 05:31:17;;;;;;;;;;;10.40;99.90;;;;;;5093974;28;19912;-69
2022/05/28 05:33:42;;;;;;;;;;;10.30;99.90;;;;;;5093842;28;20335;-69
2022/05/28 05:36:08;;;;;;;;;;;10.30;99.90;;;;;;5099473;28;19924;-69
2022/05/28 05:38:34;;;;;;;;;;;10.20;99.90;;;;;;5081362;28;20317;-69
2022/05/28 05:41:03;;;;;;;;;;;10.10;99.90;;;;;;5083761;28;19912;-70
2022/05/28 05:43:28;;;;;;;;;;;10.20;99.90;;;;;;5101392;28;19912;-69
2022/05/28 05:45:57;;;;;;;;;;;10.30;99.90;;;;;;5096674;28;19965;-69
2022/05/28 05:48:22;;;;;;;;;;;10.40;99.90;;;;;;5095349;28;19912;-69
2022/05/28 05:50:49;;;;;;;;;;;10.50;99.90;;;;;;5090584;28;19931;-70
2022/05/28 05:53:15;;;;;;;;;;;10.70;99.90;;;;;;5081106;28;20277;-71
2022/05/28 05:55:41;;;;;;;;;;;10.80;99.90;;;;;;5097457;28;19933;-69
2022/05/28 05:58:07;;;;;;;;;;;10.90;99.90;;;;;;5091901;28;20017;-68
2022/05/28 06:00:32;;;;;;;;;;;11.00;99.90;;;;;;5093032;28;20285;-69
2022/05/28 06:02:58;;;;;;;;;;;11.10;99.90;;;;;;5096915;28;19926;-69
2022/05/28 06:05:23;;;;;;;;;;;11.20;99.90;;;;;;5098034;28;19912;-70
2022/05/28 06:07:49;;;;;;;;;;;11.30;99.90;;;;;;5088252;28;19958;-69
2022/05/28 06:10:16;;;;;;;;;;;11.30;99.90;;;;;;5093399;28;20350;-69
2022/05/28 06:12:41;;;;;;;;;;;11.40;99.90;;;;;;5095339;28;20269;-69
2022/05/28 06:15:07;;;;;;;;;;;11.40;99.90;;;;;;5077901;28;19919;-70
2022/05/28 06:17:36;;;;;;;;;;;11.40;99.90;;;;;;5078152;28;19965;-70
2022/05/28 06:20:06;;;;;;;;;;;11.50;99.90;;;;;;5092947;28;19965;-68
2022/05/28 06:22:31;;;;;;;;;;;11.70;99.90;;;;;;5092298;28;19984;-69
2022/05/28 06:24:57;;;;;;;;;;;11.90;99.90;;;;;;5088357;28;20293;-69
2022/05/28 06:27:23;;;;;;;;;;;12.00;99.90;;;;;;5092197;28;19934;-68
2022/05/28 06:29:49;;;;;;;;;;;12.10;99.90;;;;;;5093508;28;19947;-69
2022/05/28 06:32:14;;;;;;;;;;;12.10;99.90;;;;;;5096661;28;19976;-69
2022/05/28 06:34:40;;;;;;;;;;;12.20;99.90;;;;;;5090569;28;19920;-69
2022/05/28 06:37:06;;;;;;;;;;;12.10;99.90;;;;;;5096162;28;19912;-69
2022/05/28 06:39:33;;;;;;;;;;;12.10;99.90;;;;;;5091155;28;20042;-70
2022/05/28 06:41:58;;;;;;;;;;;12.20;99.90;;;;;;5094383;28;19913;-69
2022/05/28 06:44:24;;;;;;;;;;;12.30;99.90;;;;;;5094889;28;20413;-70
2022/05/28 06:46:49;;;;;;;;;;;12.30;99.90;;;;;;5095705;28;20011;-69
2022/05/28 06:49:15;;;;;;;;;;;12.30;99.90;;;;;;5092719;28;19923;-69
2022/05/28 06:51:40;;;;;;;;;;;12.30;99.90;;;;;;5102178;28;20303;-69
2022/05/28 06:54:06;;;;;;;;;;;12.30;99.90;;;;;;5098975;28;19919;-70
2022/05/28 06:56:31;;;;;;;;;;;12.40;99.90;;;;;;5102554;28;19908;-71
2022/05/28 06:58:57;;;;;;;;;;;12.50;99.90;;;;;;5097008;28;19920;-71
2022/05/28 07:01:22;;;;;;;;;;;12.40;99.90;;;;;;5082260;28;19938;-70
2022/05/28 07:03:48;;;;;;;;;;;12.50;99.90;;;;;;5094661;28;19916;-69
2022/05/28 07:06:14;;;;;;;;;;;12.50;99.90;;;;;;5099468;28;19957;-68
2022/05/28 07:08:40;;;;;;;;;;;12.40;99.90;;;;;;5092853;28;19912;-69
2022/05/28 07:11:05;;;;;;;;;;;12.40;99.90;;;;;;5102625;28;19931;-70
2022/05/28 07:13:35;;;;;;;;;;;12.40;99.90;;;;;;5082919;28;19919;-69
2022/05/28 07:16:01;;;;;;;;;;;12.30;99.90;;;;;;5104100;28;19948;-69
2022/05/28 07:18:26;;;;;;;;;;;12.40;99.90;;;;;;5095389;28;19932;-69
2022/05/28 07:20:52;;;;;;;;;;;12.40;99.90;;;;;;5098330;28;20406;-70
2022/05/28 07:23:19;;;;;;;;;;;12.40;99.90;;;;;;5101147;28;19912;-70
2022/05/28 07:25:46;;;;;;;;;;;12.50;99.90;;;;;;5083477;28;20316;-69
2022/05/28 07:31:06;;;;;;;;;;;12.60;99.90;;;;;;5107547;28;19919;-70
2022/05/28 07:33:33;;;;;;;;;;;12.60;99.90;;;;;;5093301;28;19916;-70
2022/05/28 07:36:00;;;;;;;;;;;12.50;99.90;;;;;;5102256;28;20330;-70
2022/05/28 07:38:29;;;;;;;;;;;12.50;99.90;;;;;;5104780;28;19916;-70
2022/05/28 07:40:55;;;;;;;;;;;12.50;99.90;;;;;;5100589;28;20027;-69
2022/05/28 07:43:21;;;;;;;;;;;12.70;99.90;;;;;;5100135;28;19912;-70
2022/05/28 07:45:47;;;;;;;;;;;12.90;99.90;;;;;;5104318;28;19912;-71
2022/05/28 07:48:13;;;;;;;;;;;13.00;99.90;;;;;;5098869;28;19990;-69
2022/05/28 07:50:39;;;;;;;;;;;13.10;99.90;;;;;;5100238;28;19912;-69
2022/05/28 07:53:06;;;;;;;;;;;13.10;99.90;;;;;;5083225;28;19913;-69
2022/05/28 07:55:31;;;;;;;;;;;13.10;99.90;;;;;;5102759;28;19946;-70
2022/05/28 07:58:02;;;;;;;;;;;13.10;99.90;;;;;;5103162;28;19920;-70
2022/05/28 08:00:28;;;;;;;;;;;13.20;99.90;;;;;;5101802;28;19916;-69
2022/05/28 08:02:54;;;;;;;;;;;13.10;99.90;;;;;;5103457;28;19933;-69
2022/05/28 08:05:19;;;;;;;;;;;13.00;99.90;;;;;;5101316;28;19912;-69
2022/05/28 08:07:45;;;;;;;;;;;13.30;99.90;;;;;;5099295;28;19970;-71
2022/05/28 08:10:14;;;;;;;;;;;13.30;99.90;;;;;;5106683;28;19994;-70
2022/05/28 08:12:39;;;;;;;;;;;13.40;99.90;;;;;;5104153;28;19947;-69
2022/05/28 08:15:05;;;;;;;;;;;13.40;99.90;;;;;;5107744;28;19900;-71
2022/05/28 08:17:32;;;;;;;;;;;13.40;99.90;;;;;;5103187;28;19919;-70
2022/05/28 08:19:58;;;;;;;;;;;13.30;99.90;;;;;;5103515;28;20010;-69
2022/05/28 08:25:08;;;;;;;;;;;13.10;99.90;;;;;;5100434;28;19948;-71
2022/05/28 08:27:35;;;;;;;;;;;13.10;99.90;;;;;;5104363;28;19927;-70
2022/05/28 08:30:00;;;;;;;;;;;13.10;99.90;;;;;;5097419;28;20258;-67
2022/05/28 08:32:29;;;;;;;;;;;13.20;99.90;;;;;;5096423;28;20385;-68
2022/05/28 08:34:54;;;;;;;;;;;13.30;99.90;;;;;;5099199;28;19965;-68
2022/05/28 08:37:20;;;;;;;;;;;13.50;99.90;;;;;;5087630;28;19916;-67
2022/05/28 08:39:45;;;;;;;;;;;13.70;99.90;;;;;;5093154;28;20402;-68
2022/05/28 08:42:13;;;;;;;;;;;13.60;99.90;;;;;;5098767;28;19967;-70
2022/05/28 08:44:40;;;;;;;;;;;13.50;99.90;;;;;;5095044;28;19930;-70
2022/05/28 08:47:23;;;;;;;;;;;13.50;99.90;;;;;;5113284;28;19904;-71
2022/05/28 08:49:50;;;;;;;;;;;13.60;99.90;;;;;;5115531;28;19951;-69
2022/05/28 08:52:19;;;;;;;;;;;13.80;99.90;;;;;;5107108;28;19913;-71
2022/05/28 08:54:58;;;;;;;;;;;14.10;99.90;;;;;;5112451;28;19912;-71
2022/05/28 08:57:29;;;;;;;;;;;14.10;99.90;;;;;;5112677;28;19905;-71
2022/05/28 09:00:15;;;;;;;;;;;14.30;99.90;;;;;;5114869;28;19908;-70
2022/05/28 09:02:43;;;;;;;;;;;14.20;99.90;;;;;;5098515;28;19927;-70
2022/05/28 09:05:20;;;;;;;;;;;14.00;99.90;;;;;;5097767;28;19904;-70
2022/05/28 09:07:46;;;;;;;;;;;14.00;99.90;;;;;;5096930;28;19915;-71
2022/05/28 09:10:11;;;;;;;;;;;14.20;99.90;;;;;;5115730;28;19900;-71
2022/05/28 09:12:42;;;;;;;;;;;14.10;99.90;;;;;;5103752;28;19904;-71
2022/05/28 09:15:08;;;;;;;;;;;14.20;99.90;;;;;;5112677;28;19950;-71
2022/05/28 09:17:35;;;;;;;;;;;14.00;99.90;;;;;;5097408;27;19971;-70
2022/05/28 09:20:06;;;;;;;;;;;14.10;99.90;;;;;;5114635;27;19912;-70
2022/05/28 09:22:32;;;;;;;;;;;14.30;99.90;;;;;;5116096;28;19904;-70
2022/05/28 09:24:58;;;;;;;;;;;14.30;99.90;;;;;;5113728;28;19950;-69
2022/05/28 09:27:39;;;;;;;;;;;14.30;99.90;;;;;;5083929;28;20765;-70
2022/05/28 09:30:13;;;;;;;;;;;14.30;99.90;;;;;;5104663;28;19913;-70
2022/05/28 09:32:47;;;;;;;;;;;14.20;99.90;;;;;;5099201;28;19911;-69
2022/05/28 09:35:16;;;;;;;;;;;14.40;99.90;;;;;;5109182;27;19963;-70
2022/05/28 09:37:52;;;;;;;;;;;14.60;99.90;;;;;;5106943;28;19921;-70
2022/05/28 09:40:33;;;;;;;;;;;14.70;99.90;;;;;;5109150;28;19928;-70
2022/05/28 09:42:59;;;;;;;;;;;14.90;99.90;;;;;;5095640;28;19915;-70
2022/05/28 09:45:37;;;;;;;;;;;15.00;99.90;;;;;;5094212;28;19924;-70
2022/05/28 09:48:02;;;;;;;;;;;15.10;99.60;;;;;;5102585;28;19917;-71
2022/05/28 09:50:29;;;;;;;;;;;15.20;98.50;;;;;;5084212;28;19907;-69
2022/05/28 09:55:40;;;;;;;;;;;15.30;99.50;;;;;;5108517;28;19973;-70
2022/05/28 09:58:05;;;;;;;;;;;15.20;99.40;;;;;;5114764;28;19908;-70
2022/05/28 10:00:31;;;;;;;;;;;15.20;98.90;;;;;;5106108;28;19915;-71
2022/05/28 10:05:54;;;;;;;;;;;15.50;98.70;;;;;;5113734;28;19982;-70
2022/05/28 10:08:19;;;;;;;;;;;15.50;97.40;;;;;;5112638;27;19900;-70
2022/05/28 10:10:55;;;;;;;;;;;14.90;98.50;;;;;;5114673;28;19956;-70
2022/05/28 10:13:23;;;;;;;;;;;14.80;99.80;;;;;;5110886;28;19896;-70
2022/05/28 10:15:54;;;;;;;;;;;14.90;99.10;;;;;;5084066;28;19912;-69
2022/05/28 10:18:21;;;;;;;;;;;14.90;99.60;;;;;;5100974;28;19982;-69
2022/05/28 10:21:06;;;;;;;;;;;15.10;99.70;;;;;;5105395;28;19968;-71
2022/05/28 10:23:34;;;;;;;;;;;15.30;98.60;;;;;;5094700;28;20005;-72
2022/05/28 10:25:59;;;;;;;;;;;15.60;96.50;;;;;;5090695;28;19920;-71
2022/05/28 10:28:51;;;;;;;;;;;15.80;95.80;;;;;;5103974;28;19950;-68
2022/05/28 10:31:28;;;;;;;;;;;16.20;95.40;;;;;;5094232;28;19938;-67
2022/05/28 10:33:55;;;;;;;;;;;16.20;93.90;;;;;;5095707;28;19912;-68
2022/05/28 10:36:39;;;;;;;;;;;15.90;95.10;;;;;;5073241;28;20686;-67
2022/05/28 10:39:12;;;;;;;;;;;15.90;94.80;;;;;;5104923;28;19956;-69
2022/05/28 10:41:38;;;;;;;;;;;15.50;95.60;;;;;;5100041;28;19927;-66
2022/05/28 10:44:05;;;;;;;;;;;15.40;95.50;;;;;;5096180;28;19912;-68
2022/05/28 10:46:39;;;;;;;;;;;15.60;96.20;;;;;;5094783;28;19990;-69
2022/05/28 10:49:05;;;;;;;;;;;15.90;96.10;;;;;;5097727;28;19964;-69
2022/05/28 10:51:49;;;;;;;;;;;16.30;95.30;;;;;;5093733;28;19920;-69
2022/05/28 10:54:24;;;;;;;;;;;16.50;95.30;;;;;;5093604;28;20257;-69
2022/05/28 10:56:56;;;;;;;;;;;16.70;95.00;;;;;;5076291;28;20547;-69
2022/05/28 10:59:21;;;;;;;;;;;16.70;93.30;;;;;;5102526;28;19935;-68
2022/05/28 11:02:05;;;;;;;;;;;16.50;93.00;;;;;;5097675;28;19992;-68
2022/05/28 11:04:49;;;;;;;;;;;16.50;93.30;;;;;;5080989;28;20037;-66
2022/05/28 11:07:33;;;;;;;;;;;16.60;92.80;;;;;;5099396;28;19934;-68
2022/05/28 11:10:06;;;;;;;;;;;16.90;93.30;;;;;;5088539;28;19923;-67
2022/05/28 11:12:38;;;;;;;;;;;17.00;92.70;;;;;;5102601;28;19919;-68
2022/05/28 11:15:22;;;;;;;;;;;16.70;92.30;;;;;;5105432;28;19979;-68
2022/05/28 11:17:54;;;;;;;;;;;16.60;92.60;;;;;;5103382;28;19912;-67
2022/05/28 11:20:42;;;;;;;;;;;16.40;93.10;;;;;;5106830;28;20309;-69
2022/05/28 11:23:23;;;;;;;;;;;16.50;93.90;;;;;;5110600;28;19920;-68
2022/05/28 11:25:51;;;;;;;;;;;16.20;93.80;;;;;;5101968;28;20011;-67
2022/05/28 11:28:28;;;;;;;;;;;16.10;94.60;;;;;;5093036;28;19912;-68
2022/05/28 11:30:57;;;;;;;;;;;15.90;94.70;;;;;;5106500;28;19912;-67
2022/05/28 11:33:25;;;;;;;;;;;16.00;94.70;;;;;;5098663;28;19935;-68
2022/05/28 11:35:50;;;;;;;;;;;16.10;93.90;;;;;;5105951;28;19912;-67
2022/05/28 11:38:35;;;;;;;;;;;15.90;94.00;;;;;;5111159;28;19963;-70
2022/05/28 11:41:24;;;;;;;;;;;15.90;94.60;;;;;;5091548;28;19920;-67
2022/05/28 11:43:52;;;;;;;;;;;16.10;94.00;;;;;;5103471;28;19937;-67
2022/05/28 11:46:30;;;;;;;;;;;16.30;93.90;;;;;;5107613;28;20217;-67
2022/05/28 11:51:43;;;;;;;;;;;16.60;93.60;;;;;;5099847;28;19962;-68
2022/05/28 11:54:47;;;;;;;;;;;16.80;92.20;;;;;;5099319;28;19912;-65
2022/05/28 11:57:23;;;;;;;;;;;16.80;91.60;;;;;;4993069;28;20292;-71
2022/05/28 11:59:49;;;;;;;;;;;16.60;91.90;;;;;;4992887;28;19918;-67
2022/05/28 12:02:21;;;;;;;;;;;16.60;91.80;;;;;;4993188;28;19918;-69
2022/05/28 12:04:48;;;;;;;;;;;16.70;92.00;;;;;;5001003;28;19925;-68
2022/05/28 12:07:24;;;;;;;;;;;17.00;92.40;;;;;;4998939;28;19922;-67
2022/05/28 12:09:51;;;;;;;;;;;17.40;92.00;;;;;;5085363;28;20281;-66
2022/05/28 12:12:23;;;;;;;;;;;17.60;91.90;;;;;;5093929;28;19984;-68
2022/05/28 12:15:02;;;;;;;;;;;17.70;91.80;;;;;;5097345;28;19912;-68
2022/05/28 12:17:28;;;;;;;;;;;17.50;91.70;;;;;;5073801;28;19966;-68
2022/05/28 12:20:05;;;;;;;;;;;17.50;91.70;;;;;;5091317;28;20054;-69
2022/05/28 12:22:33;;;;;;;;;;;17.40;90.80;;;;;;5093854;28;19920;-67
2022/05/28 12:25:03;;;;;;;;;;;17.30;90.50;;;;;;5096456;28;19923;-69
2022/05/28 12:27:37;;;;;;;;;;;17.50;90.60;;;;;;5093249;28;19912;-68
2022/05/28 12:30:08;;;;;;;;;;;18.20;90.60;;;;;;5093597;28;19912;-67
2022/05/28 12:32:45;;;;;;;;;;;18.40;90.20;;;;;;5099305;28;20006;-67
2022/05/28 12:35:16;;;;;;;;;;;18.00;90.50;;;;;;5102429;28;19923;-68
2022/05/28 12:37:44;;;;;;;;;;;17.70;90.60;;;;;;5105117;28;20015;-69
2022/05/28 12:40:28;;;;;;;;;;;17.60;90.50;;;;;;5085005;28;20019;-68
2022/05/28 12:42:57;;;;;;;;;;;17.60;89.50;;;;;;5092246;28;19923;-70
2022/05/28 12:45:40;;;;;;;;;;;17.30;89.60;;;;;;5106411;28;19914;-66
2022/05/28 12:48:10;;;;;;;;;;;17.20;90.00;;;;;;5095318;28;19904;-66
2022/05/28 12:50:43;;;;;;;;;;;17.50;89.80;;;;;;5105239;28;19984;-69
2022/05/28 12:53:17;;;;;;;;;;;17.90;89.70;;;;;;5080540;28;19952;-68
2022/05/28 12:55:43;;;;;;;;;;;18.40;89.50;;;;;;5085194;28;20647;-67
2022/05/28 12:58:21;;;;;;;;;;;18.30;88.70;;;;;;5087319;28;19923;-71
2022/05/28 13:00:47;;;;;;;;;;;18.40;89.10;;;;;;5086136;28;19951;-70
2022/05/28 13:03:14;;;;;;;;;;;18.70;88.70;;;;;;5097679;28;19917;-69
2022/05/28 13:05:43;;;;;;;;;;;18.50;88.50;;;;;;5097844;28;19915;-68
2022/05/28 13:08:11;;;;;;;;;;;18.40;87.60;;;;;;5104129;28;20006;-68
2022/05/28 13:10:47;;;;;;;;;;;18.40;87.00;;;;;;5103144;28;19915;-69
2022/05/28 13:13:27;;;;;;;;;;;18.40;87.30;;;;;;5094777;28;19916;-70
2022/05/28 13:16:12;;;;;;;;;;;18.60;86.60;;;;;;5099015;28;20382;-68
2022/05/28 13:18:40;;;;;;;;;;;18.60;86.60;;;;;;5106068;28;19912;-68
2022/05/28 13:21:24;;;;;;;;;;;18.50;86.20;;;;;;5091693;28;19981;-69
2022/05/28 13:24:13;;;;;;;;;;;18.10;87.10;;;;;;5085700;28;19920;-68
2022/05/28 13:26:54;;;;;;;;;;;18.00;87.80;;;;;;5050882;28;19920;-71
2022/05/28 13:29:19;;;;;;;;;;;17.70;87.30;;;;;;5094157;28;21053;-69
2022/05/28 13:31:50;;;;;;;;;;;17.60;86.50;;;;;;5107181;27;19904;-70
2022/05/28 13:34:34;;;;;;;;;;;18.00;86.60;;;;;;5095043;28;19920;-70
2022/05/28 13:36:59;;;;;;;;;;;18.40;85.30;;;;;;5092610;28;19916;-70
2022/05/28 13:39:26;;;;;;;;;;;18.60;86.00;;;;;;5088575;28;19924;-68
2022/05/28 13:41:52;;;;;;;;;;;18.90;83.40;;;;;;5076368;28;19916;-66
2022/05/28 13:44:20;;;;;;;;;;;19.10;84.70;;;;;;5098172;28;19978;-67
2022/05/28 13:46:49;;;;;;;;;;;19.20;84.40;;;;;;5099275;28;19961;-72
2022/05/28 13:49:15;;;;;;;;;;;19.30;84.60;;;;;;5098991;28;19900;-68
2022/05/28 13:51:49;;;;;;;;;;;19.50;84.30;;;;;;5112916;28;19926;-68
2022/05/28 13:54:14;;;;;;;;;;;19.40;83.80;;;;;;5112899;28;19904;-67
2022/05/28 13:56:50;;;;;;;;;;;19.30;84.00;;;;;;5109991;28;19980;-69
2022/05/28 13:59:26;;;;;;;;;;;19.40;84.10;;;;;;5110424;28;19939;-68
2022/05/28 14:01:52;;;;;;;;;;;19.40;81.50;;;;;;5114060;28;19904;-68
2022/05/28 14:04:19;;;;;;;;;;;19.30;83.10;;;;;;5115158;28;19915;-69
2022/05/28 14:07:11;;;;;;;;;;;19.10;84.70;;;;;;5117503;28;19961;-69
2022/05/28 14:09:40;;;;;;;;;;;19.00;83.90;;;;;;5100310;28;19912;-67
2022/05/28 14:12:07;;;;;;;;;;;19.10;83.30;;;;;;5109773;28;19904;-69
2022/05/28 14:14:38;;;;;;;;;;;19.20;83.30;;;;;;5111748;28;19904;-69
2022/05/28 14:17:05;;;;;;;;;;;19.50;82.70;;;;;;5115141;28;19908;-69
2022/05/28 14:19:32;;;;;;;;;;;19.70;81.10;;;;;;5113579;28;19912;-69
2022/05/28 14:21:59;;;;;;;;;;;19.80;81.90;;;;;;5118478;28;19914;-68
2022/05/28 14:24:27;;;;;;;;;;;19.80;82.50;;;;;;5111082;28;19923;-69
2022/05/28 14:26:54;;;;;;;;;;;19.60;83.00;;;;;;5117297;28;19904;-70
2022/05/28 14:29:22;;;;;;;;;;;19.60;82.40;;;;;;5115565;28;19928;-71
2022/05/28 14:31:48;;;;;;;;;;;19.40;84.20;;;;;;5113447;28;19998;-69
2022/05/28 14:34:16;;;;;;;;;;;19.30;82.60;;;;;;5110394;28;19896;-68
2022/05/28 14:36:48;;;;;;;;;;;19.30;82.90;;;;;;5100732;28;19904;-68
2022/05/28 14:39:15;;;;;;;;;;;19.50;81.50;;;;;;5105436;28;19962;-69
2022/05/28 14:42:10;;;;;;;;;;;20.90;77.80;;;;;;5096296;28;19976;-70
2022/05/28 14:44:37;;;;;;;;;;;21.70;74.00;;;;;;5082865;28;19908;-68
2022/05/28 14:47:16;;;;;;;;;;;21.00;75.90;;;;;;5091524;28;19945;-71